Time;durP1;ratioP1;P1;durP2;ratioP2;P2;SDS_P1;SDS_P2;PMS_P1;PMS_P2;Temp;Humidity;BMP_temperature;BMP_pressure;BME280_temperature;BME280_humidity;BME280_pressure;Samples;Min_cycle;Max_cycle;Signal;HPM_P1;HPM_P2
2023/02/02 00:01:19;;;;;;;;;;;;;;;;;;5034469;28;20384;-75
2023/02/02 00:03:45;;;;;;;;;;;;;;;;;;5034519;28;19920;-75
2023/02/02 00:06:11;;;;;;;;;;;;;;;;;;5033073;28;19915;-74
2023/02/02 00:08:38;;;;;;;;;;;;;;;;;;5034323;28;20012;-75
2023/02/02 00:11:04;;;;;;;;;;;;;;;;;;5033006;28;19944;-74
2023/02/02 00:13:30;;;;;;;;;;;;;;;;;;5034216;28;19961;-75
2023/02/02 00:15:56;;;;;;;;;;;;;;;;;;5034368;28;19909;-75
2023/02/02 00:18:22;;;;;;;;;;;;;;;;;;5034241;28;19959;-75
2023/02/02 00:20:49;;;;;;;;;;;;;;;;;;5034333;28;19913;-74
2023/02/02 00:23:14;;;;;;;;;;;;;;;;;;5032858;28;19909;-74
2023/02/02 00:25:40;;;;;;;;;;;;;;;;;;5034112;28;20004;-74
2023/02/02 00:28:06;;;;;;;;;;;;;;;;;;5034011;28;19983;-75
2023/02/02 00:30:32;;;;;;;;;;;;;;;;;;5032707;28;19909;-74
2023/02/02 00:32:58;;;;;;;;;;;;;;;;;;5032676;28;19910;-75
2023/02/02 00:35:24;;;;;;;;;;;;;;;;;;5032658;28;19916;-75
2023/02/02 00:37:50;;;;;;;;;;;;;;;;;;5033979;28;20003;-74
2023/02/02 00:40:16;;;;;;;;;;;;;;;;;;5033775;28;19924;-74
2023/02/02 00:42:47;;;;;;;;;;;;;;;;;;5034031;28;19913;-74
2023/02/02 00:45:16;;;;;;;;;;;;;;;;;;5034036;28;19909;-74
2023/02/02 00:47:42;;;;;;;;;;;;;;;;;;5033949;28;19916;-76
2023/02/02 00:50:08;;;;;;;;;;;;;;;;;;5033749;28;20344;-74
2023/02/02 00:52:34;;;;;;;;;;;;;;;;;;5033916;28;19909;-74
2023/02/02 00:55:00;;;;;;;;;;;;;;;;;;5033679;28;19909;-74
2023/02/02 00:57:26;;;;;;;;;;;;;;;;;;5033885;28;20419;-75
2023/02/02 00:59:52;;;;;;;;;;;;;;;;;;5033621;28;19913;-76
2023/02/02 01:02:18;;;;;;;;;;;;;;;;;;5033634;28;19909;-74
2023/02/02 01:04:44;;;;;;;;;;;;;;;;;;5033740;28;19909;-74
2023/02/02 01:07:10;;;;;;;;;;;;;;;;;;5033544;28;19952;-75
2023/02/02 01:09:36;;;;;;;;;;;;;;;;;;5033565;28;19964;-74
2023/02/02 01:12:02;;;;;;;;;;;;;;;;;;5036386;28;19917;-75
2023/02/02 01:14:28;;;;;;;;;;;;;;;;;;5036187;28;19922;-74
2023/02/02 01:16:54;;;;;;;;;;;;;;;;;;5037727;28;19917;-74
2023/02/02 01:19:19;;;;;;;;;;;;;;;;;;5037467;28;19913;-75
2023/02/02 01:21:45;;;;;;;;;;;;;;;;;;5037917;28;19963;-75
2023/02/02 01:24:11;;;;;;;;;;;;;;;;;;5036200;28;19967;-75
2023/02/02 01:26:37;;;;;;;;;;;;;;;;;;5037395;28;19909;-74
2023/02/02 01:29:03;;;;;;;;;;;;;;;;;;5037416;28;19909;-75
2023/02/02 01:31:29;;;;;;;;;;;;;;;;;;5037289;28;19915;-74
2023/02/02 01:33:55;;;;;;;;;;;;;;;;;;5037498;28;19992;-74
2023/02/02 01:36:21;;;;;;;;;;;;;;;;;;5035977;28;19909;-74
2023/02/02 01:38:47;;;;;;;;;;;;;;;;;;5037103;28;19917;-74
2023/02/02 01:41:13;;;;;;;;;;;;;;;;;;5037215;28;19975;-74
2023/02/02 01:43:39;;;;;;;;;;;;;;;;;;5035785;28;20354;-74
2023/02/02 01:46:04;;;;;;;;;;;;;;;;;;5037516;28;20007;-76
2023/02/02 01:48:30;;;;;;;;;;;;;;;;;;5037340;28;19964;-74
2023/02/02 01:50:56;;;;;;;;;;;;;;;;;;5037257;28;19920;-77
2023/02/02 01:53:22;;;;;;;;;;;;;;;;;;5035641;28;19909;-74
2023/02/02 01:55:48;;;;;;;;;;;;;;;;;;5036808;28;19910;-74
2023/02/02 01:58:14;;;;;;;;;;;;;;;;;;5036791;28;19981;-74
2023/02/02 02:00:40;;;;;;;;;;;;;;;;;;5036695;28;19913;-75
2023/02/02 02:03:06;;;;;;;;;;;;;;;;;;5037097;28;19909;-74
2023/02/02 02:05:32;;;;;;;;;;;;;;;;;;5036671;28;19909;-74
2023/02/02 02:07:58;;;;;;;;;;;;;;;;;;5036783;28;19909;-74
2023/02/02 02:10:24;;;;;;;;;;;;;;;;;;5035289;28;19909;-75
2023/02/02 02:12:50;;;;;;;;;;;;;;;;;;5036543;28;19909;-75
2023/02/02 02:18:00;;;;;;;;;;;;;;;;;;5036230;28;19956;-74
2023/02/02 02:28:40;;;;;;;;;;;;;;;;;;5035963;28;19916;-74
2023/02/02 02:31:06;;;;;;;;;;;;;;;;;;5034930;28;20008;-74
2023/02/02 02:33:32;;;;;;;;;;;;;;;;;;5036227;28;20330;-75
2023/02/02 02:35:58;;;;;;;;;;;;;;;;;;5036291;28;20416;-75
2023/02/02 02:38:24;;;;;;;;;;;;;;;;;;5036070;28;19924;-75
2023/02/02 02:40:50;;;;;;;;;;;;;;;;;;5036431;28;19917;-75
2023/02/02 02:43:16;;;;;;;;;;;;;;;;;;5036380;28;19909;-75
2023/02/02 02:45:43;;;;;;;;;;;;;;;;;;5036083;28;19915;-75
2023/02/02 02:48:09;;;;;;;;;;;;;;;;;;5035909;28;19909;-76
2023/02/02 02:50:35;;;;;;;;;;;;;;;;;;5035856;28;19916;-75
2023/02/02 02:53:01;;;;;;;;;;;;;;;;;;5035967;28;19992;-74
2023/02/02 02:55:27;;;;;;;;;;;;;;;;;;5035665;28;19963;-76
2023/02/02 02:57:53;;;;;;;;;;;;;;;;;;5035828;28;19962;-75
2023/02/02 03:00:19;;;;;;;;;;;;;;;;;;5035609;28;19913;-74
2023/02/02 03:02:45;;;;;;;;;;;;;;;;;;5035697;28;19920;-76
2023/02/02 03:05:11;;;;;;;;;;;;;;;;;;5035582;28;19935;-74
2023/02/02 03:07:37;;;;;;;;;;;;;;;;;;5035591;28;19936;-75
2023/02/02 03:10:03;;;;;;;;;;;;;;;;;;5035529;28;20369;-74
2023/02/02 03:12:29;;;;;;;;;;;;;;;;;;5035902;28;20383;-75
2023/02/02 03:14:55;;;;;;;;;;;;;;;;;;5035388;28;20008;-74
2023/02/02 03:17:21;;;;;;;;;;;;;;;;;;5034106;28;19960;-74
2023/02/02 03:19:47;;;;;;;;;;;;;;;;;;5035270;28;19936;-75
2023/02/02 03:22:13;;;;;;;;;;;;;;;;;;5035250;28;19916;-74
2023/02/02 03:24:39;;;;;;;;;;;;;;;;;;5035216;28;19913;-74
2023/02/02 03:27:05;;;;;;;;;;;;;;;;;;5035416;28;19909;-74
2023/02/02 03:29:31;;;;;;;;;;;;;;;;;;5035118;28;19916;-74
2023/02/02 03:31:57;;;;;;;;;;;;;;;;;;5035089;28;19913;-74
2023/02/02 03:34:23;;;;;;;;;;;;;;;;;;5034758;28;20023;-74
2023/02/02 03:36:49;;;;;;;;;;;;;;;;;;5034989;28;19945;-74
2023/02/02 03:39:15;;;;;;;;;;;;;;;;;;5034964;28;20336;-73
2023/02/02 03:41:41;;;;;;;;;;;;;;;;;;5034898;28;20254;-74
2023/02/02 03:44:07;;;;;;;;;;;;;;;;;;5034925;28;20381;-75
2023/02/02 03:46:34;;;;;;;;;;;;;;;;;;5034825;28;20357;-74
2023/02/02 03:49:00;;;;;;;;;;;;;;;;;;5034772;28;19917;-74
2023/02/02 03:51:25;;;;;;;;;;;;;;;;;;5034751;28;19909;-75
2023/02/02 03:53:51;;;;;;;;;;;;;;;;;;5034698;28;20352;-74
2023/02/02 03:56:18;;;;;;;;;;;;;;;;;;5034978;28;19951;-73
2023/02/02 03:58:45;;;;;;;;;;;;;;;;;;5033217;28;19910;-74
2023/02/02 04:01:11;;;;;;;;;;;;;;;;;;5034530;28;19909;-74
2023/02/02 04:03:37;;;;;;;;;;;;;;;;;;5034491;28;20270;-74
2023/02/02 04:06:03;;;;;;;;;;;;;;;;;;5034457;28;19996;-74
2023/02/02 04:08:30;;;;;;;;;;;;;;;;;;5034413;28;19949;-74
2023/02/02 04:10:56;;;;;;;;;;;;;;;;;;5034541;28;19913;-73
2023/02/02 04:13:22;;;;;;;;;;;;;;;;;;5034183;28;20004;-74
2023/02/02 04:15:47;;;;;;;;;;;;;;;;;;5034437;28;19939;-73
2023/02/02 04:18:13;;;;;;;;;;;;;;;;;;5034201;28;19909;-74
2023/02/02 04:20:39;;;;;;;;;;;;;;;;;;5034098;28;19913;-73
2023/02/02 04:23:05;;;;;;;;;;;;;;;;;;5034134;28;20040;-74
2023/02/02 04:25:31;;;;;;;;;;;;;;;;;;5034318;28;19916;-74
2023/02/02 04:27:57;;;;;;;;;;;;;;;;;;5032761;28;19913;-74
2023/02/02 04:30:23;;;;;;;;;;;;;;;;;;5034279;28;19949;-74
2023/02/02 04:32:49;;;;;;;;;;;;;;;;;;5032718;28;19932;-74
2023/02/02 04:35:15;;;;;;;;;;;;;;;;;;5032686;28;19971;-75
2023/02/02 04:37:41;;;;;;;;;;;;;;;;;;5034067;28;19963;-75
2023/02/02 04:40:07;;;;;;;;;;;;;;;;;;5033810;28;20316;-74
2023/02/02 04:42:33;;;;;;;;;;;;;;;;;;5034014;28;19916;-73
2023/02/02 04:44:59;;;;;;;;;;;;;;;;;;5033591;28;19909;-74
2023/02/02 04:47:25;;;;;;;;;;;;;;;;;;5033458;28;20384;-74
2023/02/02 04:49:51;;;;;;;;;;;;;;;;;;5034041;28;20004;-74
2023/02/02 04:52:17;;;;;;;;;;;;;;;;;;5033886;28;20002;-74
2023/02/02 04:54:43;;;;;;;;;;;;;;;;;;5033761;28;19909;-74
2023/02/02 04:57:09;;;;;;;;;;;;;;;;;;5033631;28;19913;-75
2023/02/02 04:59:35;;;;;;;;;;;;;;;;;;5033846;28;19920;-74
2023/02/02 05:02:01;;;;;;;;;;;;;;;;;;5033673;28;19992;-74
2023/02/02 05:04:27;;;;;;;;;;;;;;;;;;5033641;28;19949;-74
2023/02/02 05:06:53;;;;;;;;;;;;;;;;;;5033613;28;19916;-73
2023/02/02 05:09:19;;;;;;;;;;;;;;;;;;5033700;28;19913;-75
2023/02/02 05:11:45;;;;;;;;;;;;;;;;;;5032253;28;19924;-74
2023/02/02 05:14:11;;;;;;;;;;;;;;;;;;5032082;28;19922;-73
2023/02/02 05:16:38;;;;;;;;;;;;;;;;;;5033471;28;19970;-73
2023/02/02 05:19:04;;;;;;;;;;;;;;;;;;5033451;28;19921;-74
2023/02/02 05:21:30;;;;;;;;;;;;;;;;;;5033541;28;19909;-74
2023/02/02 05:23:56;;;;;;;;;;;;;;;;;;5033464;28;19917;-75
2023/02/02 05:26:22;;;;;;;;;;;;;;;;;;5033644;28;19909;-74
2023/02/02 05:28:48;;;;;;;;;;;;;;;;;;5033473;28;20126;-74
2023/02/02 05:31:14;;;;;;;;;;;;;;;;;;5033379;28;19917;-73
2023/02/02 05:33:39;;;;;;;;;;;;;;;;;;5033374;28;19913;-74
2023/02/02 05:36:05;;;;;;;;;;;;;;;;;;5033316;28;20000;-73
2023/02/02 05:38:31;;;;;;;;;;;;;;;;;;5033496;28;19948;-74
2023/02/02 05:40:57;;;;;;;;;;;;;;;;;;5033356;28;19921;-74
2023/02/02 05:43:23;;;;;;;;;;;;;;;;;;5033229;28;19916;-73
2023/02/02 05:45:49;;;;;;;;;;;;;;;;;;5033228;28;19952;-73
2023/02/02 05:48:15;;;;;;;;;;;;;;;;;;5033223;28;19909;-73
2023/02/02 05:50:41;;;;;;;;;;;;;;;;;;5033465;28;20290;-73
2023/02/02 05:53:07;;;;;;;;;;;;;;;;;;5033465;28;20388;-74
2023/02/02 05:55:33;;;;;;;;;;;;;;;;;;5033107;28;19909;-74
2023/02/02 05:57:59;;;;;;;;;;;;;;;;;;5035669;28;19909;-73
2023/02/02 06:00:24;;;;;;;;;;;;;;;;;;5036690;28;19960;-74
2023/02/02 06:02:50;;;;;;;;;;;;;;;;;;5036753;28;19915;-73
2023/02/02 06:05:16;;;;;;;;;;;;;;;;;;5036737;28;19909;-73
2023/02/02 06:07:42;;;;;;;;;;;;;;;;;;5036812;28;19910;-75
2023/02/02 06:10:08;;;;;;;;;;;;;;;;;;5036615;28;19916;-74
2023/02/02 06:12:34;;;;;;;;;;;;;;;;;;5035304;28;19952;-73
2023/02/02 06:15:00;;;;;;;;;;;;;;;;;;5036371;28;19971;-74
2023/02/02 06:17:26;;;;;;;;;;;;;;;;;;5036501;28;19983;-74
2023/02/02 06:19:52;;;;;;;;;;;;;;;;;;5036535;28;19936;-73
2023/02/02 06:22:18;;;;;;;;;;;;;;;;;;5036411;28;20278;-74
2023/02/02 06:24:44;;;;;;;;;;;;;;;;;;5035055;28;20381;-74
2023/02/02 06:27:10;;;;;;;;;;;;;;;;;;5036302;28;19916;-74
2023/02/02 06:29:35;;;;;;;;;;;;;;;;;;5036251;28;19909;-73
2023/02/02 06:32:02;;;;;;;;;;;;;;;;;;5036188;28;19909;-75
2023/02/02 06:34:28;;;;;;;;;;;;;;;;;;5036328;28;20396;-73
2023/02/02 06:36:54;;;;;;;;;;;;;;;;;;5036112;28;19909;-74
2023/02/02 06:39:20;;;;;;;;;;;;;;;;;;5034730;28;19921;-73
2023/02/02 06:41:47;;;;;;;;;;;;;;;;;;5034752;28;19916;-73
2023/02/02 06:44:14;;;;;;;;;;;;;;;;;;5034725;28;19909;-73
2023/02/02 06:46:40;;;;;;;;;;;;;;;;;;5035929;28;19916;-74
2023/02/02 06:49:05;;;;;;;;;;;;;;;;;;5035886;28;19909;-74
2023/02/02 06:51:31;;;;;;;;;;;;;;;;;;5035659;28;19932;-73
2023/02/02 06:53:57;;;;;;;;;;;;;;;;;;5035982;28;20369;-73
2023/02/02 06:56:23;;;;;;;;;;;;;;;;;;5035511;28;20389;-74
2023/02/02 06:58:49;;;;;;;;;;;;;;;;;;5034268;28;20369;-73
2023/02/02 07:01:15;;;;;;;;;;;;;;;;;;5034394;28;19909;-73
2023/02/02 07:03:41;;;;;;;;;;;;;;;;;;5035812;28;19909;-74
2023/02/02 07:06:07;;;;;;;;;;;;;;;;;;5035563;28;19919;-76
2023/02/02 07:08:33;;;;;;;;;;;;;;;;;;5033572;28;19916;-73
2023/02/02 07:10:59;;;;;;;;;;;;;;;;;;5035511;28;19909;-74
2023/02/02 07:13:25;;;;;;;;;;;;;;;;;;5035320;28;19910;-74
2023/02/02 07:15:51;;;;;;;;;;;;;;;;;;5035551;28;19913;-73
2023/02/02 07:18:16;;;;;;;;;;;;;;;;;;5035347;28;20062;-73
2023/02/02 07:20:42;;;;;;;;;;;;;;;;;;5035650;28;19913;-73
2023/02/02 07:23:08;;;;;;;;;;;;;;;;;;5033935;28;19916;-73
2023/02/02 07:25:34;;;;;;;;;;;;;;;;;;5035186;28;19909;-74
2023/02/02 07:28:00;;;;;;;;;;;;;;;;;;5035217;28;19909;-74
2023/02/02 07:30:28;;;;;;;;;;;;;;;;;;5035148;28;19945;-73
2023/02/02 07:32:54;;;;;;;;;;;;;;;;;;5035222;28;19909;-73
2023/02/02 07:35:20;;;;;;;;;;;;;;;;;;5033741;28;20352;-73
2023/02/02 07:37:46;;;;;;;;;;;;;;;;;;5035034;28;20389;-76
2023/02/02 07:40:12;;;;;;;;;;;;;;;;;;5034912;28;19913;-75
2023/02/02 07:42:38;;;;;;;;;;;;;;;;;;5035283;28;19923;-76
2023/02/02 07:45:05;;;;;;;;;;;;;;;;;;5035177;28;19963;-76
2023/02/02 07:47:31;;;;;;;;;;;;;;;;;;5034910;28;20400;-73
2023/02/02 07:49:56;;;;;;;;;;;;;;;;;;5034885;28;19909;-73
2023/02/02 07:52:22;;;;;;;;;;;;;;;;;;5034649;28;19909;-75
2023/02/02 07:54:48;;;;;;;;;;;;;;;;;;5034864;28;19909;-75
2023/02/02 07:57:16;;;;;;;;;;;;;;;;;;5033295;28;20044;-75
2023/02/02 07:59:42;;;;;;;;;;;;;;;;;;5034603;28;20369;-75
2023/02/02 08:02:08;;;;;;;;;;;;;;;;;;5034883;28;19963;-76
2023/02/02 08:04:34;;;;;;;;;;;;;;;;;;5034526;28;20261;-76
2023/02/02 08:07:00;;;;;;;;;;;;;;;;;;5034434;28;19992;-77
2023/02/02 08:09:26;;;;;;;;;;;;;;;;;;5034447;28;20377;-73
2023/02/02 08:11:52;;;;;;;;;;;;;;;;;;5033073;28;19913;-76
2023/02/02 08:14:18;;;;;;;;;;;;;;;;;;5034468;28;19975;-75
2023/02/02 08:16:44;;;;;;;;;;;;;;;;;;5034500;28;20366;-75
2023/02/02 08:19:10;;;;;;;;;;;;;;;;;;5034163;28;20009;-75
2023/02/02 08:21:36;;;;;;;;;;;;;;;;;;5033300;28;20382;-73
2023/02/02 08:24:03;;;;;;;;;;;;;;;;;;5034126;28;19909;-75
2023/02/02 08:26:29;;;;;;;;;;;;;;;;;;5034122;28;20035;-76
2023/02/02 08:28:55;;;;;;;;;;;;;;;;;;5034091;28;20019;-76
2023/02/02 08:31:21;;;;;;;;;;;;;;;;;;5034033;28;19909;-73
2023/02/02 08:33:47;;;;;;;;;;;;;;;;;;5032717;28;19913;-75
2023/02/02 08:36:13;;;;;;;;;;;;;;;;;;5034011;28;19909;-76
2023/02/02 08:38:39;;;;;;;;;;;;;;;;;;5033969;28;19909;-74
2023/02/02 08:41:05;;;;;;;;;;;;;;;;;;5033857;28;20296;-73
2023/02/02 08:43:31;;;;;;;;;;;;;;;;;;5032606;28;19910;-76
2023/02/02 08:45:57;;;;;;;;;;;;;;;;;;5032600;28;20036;-74
2023/02/02 08:48:23;;;;;;;;;;;;;;;;;;5033823;28;19909;-76
2023/02/02 08:50:49;;;;;;;;;;;;;;;;;;5033773;28;20400;-73
2023/02/02 08:53:15;;;;;;;;;;;;;;;;;;5033772;28;19916;-74
2023/02/02 08:55:44;;;;;;;;;;;;;;;;;;5032387;28;19916;-74
2023/02/02 08:58:10;;;;;;;;;;;;;;;;;;5034010;28;20381;-73
2023/02/02 09:00:36;;;;;;;;;;;;;;;;;;5033816;28;19971;-75
2023/02/02 09:03:02;;;;;;;;;;;;;;;;;;5033659;28;20023;-75
2023/02/02 09:05:29;;;;;;;;;;;;;;;;;;5033631;28;20396;-76
2023/02/02 09:07:55;;;;;;;;;;;;;;;;;;5033561;28;19943;-76
2023/02/02 09:10:20;;;;;;;;;;;;;;;;;;5033601;28;19909;-76
2023/02/02 09:12:46;;;;;;;;;;;;;;;;;;5033851;28;19909;-75
2023/02/02 09:15:12;;;;;;;;;;;;;;;;;;5033373;28;19928;-75
2023/02/02 09:17:38;;;;;;;;;;;;;;;;;;5032250;28;19909;-75
2023/02/02 09:20:05;;;;;;;;;;;;;;;;;;5033565;28;19963;-76
2023/02/02 09:22:31;;;;;;;;;;;;;;;;;;5033498;28;19909;-75
2023/02/02 09:24:57;;;;;;;;;;;;;;;;;;5033447;28;20336;-76
2023/02/02 09:27:23;;;;;;;;;;;;;;;;;;5033870;28;20395;-75
2023/02/02 09:29:49;;;;;;;;;;;;;;;;;;5033447;28;19967;-75
2023/02/02 09:32:15;;;;;;;;;;;;;;;;;;5034912;28;20293;-75
2023/02/02 09:34:40;;;;;;;;;;;;;;;;;;5037282;28;20446;-76
2023/02/02 09:37:06;;;;;;;;;;;;;;;;;;5035997;28;20328;-75
2023/02/02 09:39:32;;;;;;;;;;;;;;;;;;5037151;28;19913;-76
2023/02/02 09:41:59;;;;;;;;;;;;;;;;;;5037233;28;19909;-77
2023/02/02 09:44:25;;;;;;;;;;;;;;;;;;5037126;28;19910;-75
2023/02/02 09:46:51;;;;;;;;;;;;;;;;;;5037090;28;19917;-75
2023/02/02 09:49:17;;;;;;;;;;;;;;;;;;5037070;28;19913;-76
2023/02/02 09:51:43;;;;;;;;;;;;;;;;;;5035912;28;19996;-75
2023/02/02 09:54:09;;;;;;;;;;;;;;;;;;5037110;28;19949;-75
2023/02/02 09:56:35;;;;;;;;;;;;;;;;;;5036783;28;19913;-76
2023/02/02 09:59:01;;;;;;;;;;;;;;;;;;5036772;28;19995;-75
2023/02/02 10:01:28;;;;;;;;;;;;;;;;;;5036671;28;20063;-76
2023/02/02 10:03:54;;;;;;;;;;;;;;;;;;5036784;28;19975;-76
2023/02/02 10:06:20;;;;;;;;;;;;;;;;;;5037097;28;20419;-75
2023/02/02 10:08:46;;;;;;;;;;;;;;;;;;5035385;28;19910;-76
2023/02/02 10:11:12;;;;;;;;;;;;;;;;;;5035363;28;19909;-75
2023/02/02 10:13:38;;;;;;;;;;;;;;;;;;5036413;28;19913;-76
2023/02/02 10:16:04;;;;;;;;;;;;;;;;;;5037021;28;19905;-75
2023/02/02 10:18:30;;;;;;;;;;;;;;;;;;5036535;28;20008;-75
2023/02/02 10:20:55;;;;;;;;;;;;;;;;;;5036558;28;20408;-76
2023/02/02 10:23:21;;;;;;;;;;;;;;;;;;5036503;28;20309;-75
2023/02/02 10:25:48;;;;;;;;;;;;;;;;;;5036377;28;19913;-76
2023/02/02 10:28:14;;;;;;;;;;;;;;;;;;5036638;28;19931;-76
2023/02/02 10:30:39;;;;;;;;;;;;;;;;;;5036455;28;19909;-75
2023/02/02 10:33:05;;;;;;;;;;;;;;;;;;5036272;28;19999;-76
2023/02/02 10:35:31;;;;;;;;;;;;;;;;;;5036639;28;20020;-75
2023/02/02 10:37:57;;;;;;;;;;;;;;;;;;5034864;28;20380;-75
2023/02/02 10:40:23;;;;;;;;;;;;;;;;;;5036163;28;19913;-75
2023/02/02 10:43:44;;;;;;;;;;;;;;;;;;5034533;28;19909;-76
2023/02/02 10:45:35;;;;;;;;;;;;;;;;;;5035458;28;19916;-76
2023/02/02 10:48:01;;;;;;;;;;;;;;;;;;5036183;28;19921;-75
2023/02/02 10:50:27;;;;;;;;;;;;;;;;;;5035921;28;19935;-73
2023/02/02 10:52:53;;;;;;;;;;;;;;;;;;5034578;28;19916;-75
2023/02/02 10:55:19;;;;;;;;;;;;;;;;;;5035785;28;19996;-75
2023/02/02 10:57:45;;;;;;;;;;;;;;;;;;5035810;28;19917;-76
2023/02/02 11:00:11;;;;;;;;;;;;;;;;;;5035705;28;20281;-76
2023/02/02 11:02:37;;;;;;;;;;;;;;;;;;5035710;28;19909;-75
2023/02/02 11:07:47;;;;;;;;;;;;;;;;;;5035345;28;19966;-74
2023/02/02 11:10:13;;;;;;;;;;;;;;;;;;5034275;28;19909;-75
2023/02/02 11:12:39;;;;;;;;;;;;;;;;;;5035519;28;20063;-75
2023/02/02 11:15:06;;;;;;;;;;;;;;;;;;5035368;28;19927;-76
2023/02/02 11:17:32;;;;;;;;;;;;;;;;;;5035388;28;19909;-75
2023/02/02 11:19:58;;;;;;;;;;;;;;;;;;5035299;28;19913;-75
2023/02/02 11:22:24;;;;;;;;;;;;;;;;;;5035395;28;19917;-76
2023/02/02 11:24:50;;;;;;;;;;;;;;;;;;5035841;28;19910;-75
2023/02/02 11:27:16;;;;;;;;;;;;;;;;;;5035192;28;19909;-76
2023/02/02 11:29:42;;;;;;;;;;;;;;;;;;5033865;28;19913;-75
2023/02/02 11:32:08;;;;;;;;;;;;;;;;;;5035091;28;19916;-75
2023/02/02 11:34:34;;;;;;;;;;;;;;;;;;5035114;28;20008;-75
2023/02/02 11:37:00;;;;;;;;;;;;;;;;;;5035026;28;19956;-75
2023/02/02 11:39:26;;;;;;;;;;;;;;;;;;5034970;28;20287;-75
2023/02/02 11:41:52;;;;;;;;;;;;;;;;;;5033637;28;20381;-76
2023/02/02 11:44:18;;;;;;;;;;;;;;;;;;5034922;28;19990;-75
2023/02/02 11:46:43;;;;;;;;;;;;;;;;;;5035301;28;20440;-76
2023/02/02 11:49:11;;;;;;;;;;;;;;;;;;5034801;28;20020;-75
2023/02/02 11:51:37;;;;;;;;;;;;;;;;;;5033415;28;20385;-76
2023/02/02 11:54:05;;;;;;;;;;;;;;;;;;5034828;28;20027;-75
2023/02/02 11:56:30;;;;;;;;;;;;;;;;;;5034414;28;20016;-75
2023/02/02 11:58:58;;;;;;;;;;;;;;;;;;5034464;28;19940;-75
2023/02/02 12:01:24;;;;;;;;;;;;;;;;;;5034880;28;19910;-76
2023/02/02 12:03:50;;;;;;;;;;;;;;;;;;5034502;28;19909;-75
2023/02/02 12:06:16;;;;;;;;;;;;;;;;;;5034609;28;19993;-75
2023/02/02 12:08:42;;;;;;;;;;;;;;;;;;5033147;28;20270;-75
2023/02/02 12:11:08;;;;;;;;;;;;;;;;;;5034379;28;19917;-75
2023/02/02 12:13:34;;;;;;;;;;;;;;;;;;5034321;28;19916;-76
2023/02/02 12:16:00;;;;;;;;;;;;;;;;;;5034426;28;19955;-75
2023/02/02 12:18:26;;;;;;;;;;;;;;;;;;5034435;28;19909;-75
2023/02/02 12:20:52;;;;;;;;;;;;;;;;;;5034203;28;19920;-75
2023/02/02 12:23:18;;;;;;;;;;;;;;;;;;5032960;28;19920;-76
2023/02/02 12:25:44;;;;;;;;;;;;;;;;;;5034159;28;19954;-75
2023/02/02 12:28:10;;;;;;;;;;;;;;;;;;5032847;28;20000;-75
2023/02/02 12:30:35;;;;;;;;;;;;;;;;;;5034491;28;20389;-75
2023/02/02 12:33:01;;;;;;;;;;;;;;;;;;5034059;28;20024;-75
2023/02/02 12:35:27;;;;;;;;;;;;;;;;;;5034177;28;20297;-75
2023/02/02 12:37:53;;;;;;;;;;;;;;;;;;5034004;28;19910;-75
2023/02/02 12:40:19;;;;;;;;;;;;;;;;;;5033870;28;19968;-75
2023/02/02 12:42:45;;;;;;;;;;;;;;;;;;5033890;28;19913;-76
2023/02/02 12:45:11;;;;;;;;;;;;;;;;;;5034327;28;19955;-75
2023/02/02 12:47:37;;;;;;;;;;;;;;;;;;5033863;28;19914;-75
2023/02/02 12:50:03;;;;;;;;;;;;;;;;;;5033816;28;19954;-74
2023/02/02 12:52:29;;;;;;;;;;;;;;;;;;5033816;28;20443;-75
2023/02/02 12:54:56;;;;;;;;;;;;;;;;;;5033752;28;19909;-75
2023/02/02 12:57:22;;;;;;;;;;;;;;;;;;5033724;28;19910;-76
2023/02/02 12:59:48;;;;;;;;;;;;;;;;;;5033792;28;19966;-75
2023/02/02 13:02:13;;;;;;;;;;;;;;;;;;5033659;28;20000;-76
2023/02/02 13:04:39;;;;;;;;;;;;;;;;;;5033660;28;19916;-75
2023/02/02 13:07:05;;;;;;;;;;;;;;;;;;5036524;28;19909;-75
2023/02/02 13:09:31;;;;;;;;;;;;;;;;;;5040216;28;19932;-76
2023/02/02 13:11:57;;;;;;;;;;;;;;;;;;5040268;28;20025;-75
2023/02/02 13:14:23;;;;;;;;;;;;;;;;;;5039937;28;19928;-75
2023/02/02 13:16:49;;;;;;;;;;;;;;;;;;5040128;28;20004;-75
2023/02/02 13:19:15;;;;;;;;;;;;;;;;;;5040023;28;19920;-75
2023/02/02 13:21:41;;;;;;;;;;;;;;;;;;5040148;28;20344;-74
2023/02/02 13:24:07;;;;;;;;;;;;;;;;;;5040123;28;19920;-76
2023/02/02 13:26:36;;;;;;;;;;;;;;;;;;5040510;28;19909;-75
2023/02/02 13:29:02;;;;;;;;;;;;;;;;;;5040060;28;19913;-75
2023/02/02 13:31:28;;;;;;;;;;;;;;;;;;5038682;28;20389;-76
2023/02/02 13:33:54;;;;;;;;;;;;;;;;;;5039965;28;19909;-74
2023/02/02 13:36:24;;;;;;;;;;;;;;;;;;5039952;28;19956;-75
2023/02/02 13:38:50;;;;;;;;;;;;;;;;;;5039922;28;20349;-76
2023/02/02 13:41:17;;;;;;;;;;;;;;;;;;5039864;28;19920;-75
2023/02/02 13:43:43;;;;;;;;;;;;;;;;;;5039929;28;20046;-75
2023/02/02 13:46:10;;;;;;;;;;;;;;;;;;5039889;28;19948;-76
2023/02/02 13:48:36;;;;;;;;;;;;;;;;;;5039884;28;19909;-75
2023/02/02 13:51:02;;;;;;;;;;;;;;;;;;5039858;28;19996;-76
2023/02/02 13:53:28;;;;;;;;;;;;;;;;;;5039762;28;20036;-75
2023/02/02 13:55:54;;;;;;;;;;;;;;;;;;5039783;28;19915;-76
2023/02/02 13:58:20;;;;;;;;;;;;;;;;;;5039814;28;19995;-75
2023/02/02 14:00:46;;;;;;;;;;;;;;;;;;5039673;28;19920;-75
2023/02/02 14:03:12;;;;;;;;;;;;;;;;;;5039902;28;19909;-75
2023/02/02 14:05:38;;;;;;;;;;;;;;;;;;5039707;28;19913;-75
2023/02/02 14:08:06;;;;;;;;;;;;;;;;;;5039698;28;19916;-75
2023/02/02 14:10:32;;;;;;;;;;;;;;;;;;5039796;28;19909;-75
2023/02/02 14:12:58;;;;;;;;;;;;;;;;;;5039675;28;19948;-75
2023/02/02 14:15:24;;;;;;;;;;;;;;;;;;5039280;28;19928;-76
2023/02/02 14:17:50;;;;;;;;;;;;;;;;;;5039276;28;19909;-75
2023/02/02 14:20:16;;;;;;;;;;;;;;;;;;5036788;28;19970;-75
2023/02/02 14:22:42;;;;;;;;;;;;;;;;;;5036442;28;19909;-76
2023/02/02 14:25:08;;;;;;;;;;;;;;;;;;5036517;28;19914;-75
2023/02/02 14:27:33;;;;;;;;;;;;;;;;;;5036377;28;19915;-75
2023/02/02 14:29:59;;;;;;;;;;;;;;;;;;5035029;28;19913;-75
2023/02/02 14:32:28;;;;;;;;;;;;;;;;;;5036260;28;19940;-76
2023/02/02 14:34:54;;;;;;;;;;;;;;;;;;5036226;28;19909;-76
2023/02/02 14:37:20;;;;;;;;;;;;;;;;;;5034733;28;19971;-75
2023/02/02 14:39:46;;;;;;;;;;;;;;;;;;5036341;28;19913;-75
2023/02/02 14:44:57;;;;;;;;;;;;;;;;;;5035801;28;19963;-75
2023/02/02 14:47:23;;;;;;;;;;;;;;;;;;5035978;28;19909;-75
2023/02/02 14:49:49;;;;;;;;;;;;;;;;;;5036164;28;19979;-75
2023/02/02 14:52:15;;;;;;;;;;;;;;;;;;5035923;28;19909;-75
2023/02/02 14:54:41;;;;;;;;;;;;;;;;;;5036109;28;19909;-74
2023/02/02 14:57:07;;;;;;;;;;;;;;;;;;5035803;28;20292;-75
2023/02/02 14:59:33;;;;;;;;;;;;;;;;;;5035712;28;19913;-76
2023/02/02 15:01:59;;;;;;;;;;;;;;;;;;5035662;28;19916;-76
2023/02/02 15:04:26;;;;;;;;;;;;;;;;;;5035687;28;20423;-75
2023/02/02 15:06:52;;;;;;;;;;;;;;;;;;5035551;28;19913;-76
2023/02/02 15:09:18;;;;;;;;;;;;;;;;;;5034321;28;19913;-75
2023/02/02 15:11:44;;;;;;;;;;;;;;;;;;5035543;28;19932;-75
2023/02/02 15:14:10;;;;;;;;;;;;;;;;;;5035329;28;19921;-75
2023/02/02 15:16:36;;;;;;;;;;;;;;;;;;5035831;28;19909;-74
2023/02/02 15:19:04;;;;;;;;;;;;;;;;;;5034580;28;21310;-75
2023/02/02 15:21:30;;;;;;;;;;;;;;;;;;5035350;28;19910;-76
2023/02/02 15:23:56;;;;;;;;;;;;;;;;;;5033905;28;20366;-76
2023/02/02 15:26:23;;;;;;;;;;;;;;;;;;5034047;28;19916;-74
2023/02/02 15:28:49;;;;;;;;;;;;;;;;;;5035442;28;20004;-76
2023/02/02 15:31:16;;;;;;;;;;;;;;;;;;5034661;28;19910;-75
2023/02/02 15:33:42;;;;;;;;;;;;;;;;;;5035250;28;20312;-74
2023/02/02 15:36:11;;;;;;;;;;;;;;;;;;5035055;28;20365;-76
2023/02/02 15:38:38;;;;;;;;;;;;;;;;;;5035461;28;20004;-75
2023/02/02 15:41:05;;;;;;;;;;;;;;;;;;5035323;28;20328;-76
2023/02/02 15:43:30;;;;;;;;;;;;;;;;;;5034922;28;20278;-75
2023/02/02 15:45:56;;;;;;;;;;;;;;;;;;5035037;28;19916;-75
2023/02/02 15:48:22;;;;;;;;;;;;;;;;;;5034846;28;19915;-75
2023/02/02 15:50:49;;;;;;;;;;;;;;;;;;5035230;28;19996;-75
2023/02/02 15:53:16;;;;;;;;;;;;;;;;;;5033403;28;19913;-75
2023/02/02 15:55:42;;;;;;;;;;;;;;;;;;5034874;28;19963;-75
2023/02/02 15:58:08;;;;;;;;;;;;;;;;;;5034831;28;19917;-75
2023/02/02 16:00:34;;;;;;;;;;;;;;;;;;5034578;28;19913;-75
2023/02/02 16:03:00;;;;;;;;;;;;;;;;;;5033253;28;20388;-75
2023/02/02 16:05:26;;;;;;;;;;;;;;;;;;5034565;28;19910;-75
2023/02/02 16:07:52;;;;;;;;;;;;;;;;;;5034512;28;19909;-75
2023/02/02 16:10:18;;;;;;;;;;;;;;;;;;5034499;28;20281;-75
2023/02/02 16:12:44;;;;;;;;;;;;;;;;;;5034457;28;19909;-75
2023/02/02 16:15:10;;;;;;;;;;;;;;;;;;5034163;28;19928;-74
2023/02/02 16:17:36;;;;;;;;;;;;;;;;;;5034350;28;19909;-75
2023/02/02 16:20:02;;;;;;;;;;;;;;;;;;5034737;28;20015;-75
2023/02/02 16:22:29;;;;;;;;;;;;;;;;;;5034212;28;19956;-75
2023/02/02 16:24:55;;;;;;;;;;;;;;;;;;5032918;28;20258;-75
2023/02/02 16:27:21;;;;;;;;;;;;;;;;;;5034468;28;19909;-74
2023/02/02 16:29:47;;;;;;;;;;;;;;;;;;5034096;28;19936;-74
2023/02/02 16:32:13;;;;;;;;;;;;;;;;;;5034063;28;19916;-75
2023/02/02 16:34:39;;;;;;;;;;;;;;;;;;5034161;28;20281;-76
2023/02/02 16:37:05;;;;;;;;;;;;;;;;;;5033992;28;20324;-75
2023/02/02 16:39:31;;;;;;;;;;;;;;;;;;5033930;28;20056;-75
2023/02/02 16:41:57;;;;;;;;;;;;;;;;;;5033519;28;19950;-74
2023/02/02 16:44:23;;;;;;;;;;;;;;;;;;5033911;28;19909;-76
2023/02/02 16:46:49;;;;;;;;;;;;;;;;;;5033903;28;19910;-76
2023/02/02 16:49:15;;;;;;;;;;;;;;;;;;5033961;28;19916;-75
2023/02/02 16:51:41;;;;;;;;;;;;;;;;;;5033855;28;20277;-75
2023/02/02 16:54:06;;;;;;;;;;;;;;;;;;5033974;28;19909;-75